Latest Weather Observations for Perth Airport

IDW60801

Issued at 3:35 pm WST Wednesday 3 September 2014 (issued every 30 minutes, with the page automatically refreshed every 10 minutes)

About weather observations | Map of weather stations | Latest weather observations for WA | Other Formats
Station Details ID: 009021 Name: PERTH AIRPORT Lat: -31.93 Lon: 115.98 Height: 15.4 m
Data from the previous 72 hours. | See also: Recent months at Perth Airport
Date/Time
WST
Temp
°C
App
Temp
°C
Dew
Point
Rel
Hum
%
Delta-T
°C
Wind Press
QNH
hPa
Press
MSL
hPa
Rain
since 9 am
mm
Dir
 
Spd
km/h
Gust
km/h
Spd
kts
Gust
kts
03/03:30pm 19.6 16.1 8.7 49 5.7 ENE 17 20 9 11 1020.2 - 0.0
03/03:00pm 20.0 16.5 8.7 48 5.9 ENE 17 22 9 12 1020.3 1020.3 0.0
03/02:30pm 19.8 16.8 7.7 45 6.2 E 13 19 7 10 1020.2 - 0.0
03/02:00pm 19.9 17.3 9.3 50 5.6 E 13 19 7 10 1020.3 - 0.0
03/01:30pm 19.7 17.5 7.8 46 6.1 SE 9 17 5 9 1020.4 - 0.0
03/01:00pm 19.4 17.8 10.3 55 4.9 ESE 9 13 5 7 1020.7 - 0.0
03/12:30pm 19.2 17.5 9.8 54 5.0 SW 9 13 5 7 1020.9 - 0.0
03/12:00pm 19.3 18.8 10.8 58 4.6 N 4 9 2 5 1021.2 1021.2 0.0
03/11:30am 18.5 17.6 10.5 59 4.3 SSE 6 9 3 5 1021.7 - 0.0
03/11:00am 18.3 17.8 10.9 62 4.0 S 4 7 2 4 1021.8 - 0.0
03/10:30am 18.4 18.5 11.4 63 3.8 ENE 2 11 1 6 1021.7 - 0.0
03/10:00am 17.5 16.2 11.4 67 3.3 N 9 13 5 7 1022.1 - 0.0
03/09:30am 16.2 14.4 10.7 70 2.9 SE 11 15 6 8 1022.1 - 0.0
03/09:00am 15.4 13.3 11.1 75 2.3 S 13 17 7 9 1022.2 1022.2 0.0
03/08:30am 14.1 11.3 11.3 83 1.5 S 17 20 9 11 1022.1 - 0.0
03/08:00am 13.6 10.8 11.3 86 1.2 S 17 19 9 10 1021.9 - 0.0
03/07:30am 13.1 10.7 11.4 89 0.9 S 15 17 8 9 1021.5 - 0.0
03/07:00am 11.8 9.6 10.8 94 0.5 SSW 13 15 7 8 1021.3 - 0.0
03/06:30am 11.6 8.6 10.8 95 0.4 S 17 20 9 11 1021.0 - 0.0
03/06:00am 11.9 9.8 11.3 96 0.3 S 13 19 7 10 1020.8 1020.8 0.0
03/05:30am 12.2 9.8 11.4 95 0.4 S 15 17 8 9 1020.7 - 0.0
03/05:00am 12.4 10.0 11.5 94 0.5 SSW 15 15 8 8 1020.5 - 0.0
03/04:30am 12.5 10.5 11.6 94 0.5 SSW 13 15 7 8 1020.1 - 0.0
03/04:00am 12.4 11.2 11.6 95 0.4 S 9 13 5 7 1019.9 - 0.0
03/03:30am 11.5 10.6 10.7 95 0.4 S 6 7 3 4 1019.9 - 0.0
03/03:00am 11.8 10.5 11.2 96 0.3 S 9 11 5 6 1019.7 1019.7 0.0
03/02:30am 11.9 12.3 11.1 95 0.4 CALM 0 0 0 0 1019.8 - 0.0
03/02:00am 12.0 11.1 11.4 96 0.3 NE 7 11 4 6 1020.1 - 0.0
03/01:30am 12.2 11.3 11.4 95 0.4 SSW 7 9 4 5 1019.9 - 0.0
03/01:00am 12.4 11.6 11.6 95 0.4 SSW 7 11 4 6 1019.7 - 0.0
03/12:30am 12.4 12.5 11.6 95 0.4 WNW 2 7 1 4 1019.4 - 0.0
 
Date/Time
WST
Temp
°C
App
Temp
°C
Dew
Point
Rel
Hum
%
Delta-T
°C
Wind Press
QNH
hPa
Press
MSL
hPa
Rain
since 9 am
mm
Dir
 
Spd
km/h
Gust
km/h
Spd
kts
Gust
kts
02/11:30pm 12.9 12.7 11.8 93 0.6 WNW 4 7 2 4 1019.5 - 0.0
02/11:00pm 13.5 13.0 12.0 91 0.8 SSW 6 7 3 4 1019.4 - 0.0
02/10:30pm 14.1 13.0 12.1 88 1.1 SSE 9 15 5 8 1019.4 - 0.0
02/10:00pm 15.0 13.7 12.4 84 1.4 SSE 11 13 6 7 1019.4 - 0.0
02/09:30pm 16.2 15.1 12.0 76 2.3 S 9 13 5 7 1019.6 - 0.0
02/09:00pm 16.0 15.0 12.3 79 2.0 S 9 19 5 10 1019.2 1019.2 0.0
02/08:30pm 16.3 15.9 12.9 80 1.9 S 7 9 4 5 1019.3 - 0.0
02/08:00pm 16.9 16.0 12.6 76 2.4 S 9 11 5 6 1019.4 - 0.0
02/07:30pm 17.4 16.1 12.5 73 2.7 S 11 15 6 8 1018.9 - 0.0
02/07:00pm 17.7 16.0 12.3 70 3.0 S 13 17 7 9 1018.3 - 0.0
02/06:30pm 17.7 16.4 12.5 71 2.9 SSW 11 13 6 7 1017.8 - 0.0
02/06:00pm 18.0 16.5 13.2 73 2.7 SW 13 17 7 9 1017.6 1017.6 0.0
02/05:30pm 18.3 17.2 13.1 71 2.9 SW 11 15 6 8 1017.5 - 0.0
02/05:00pm 18.4 17.3 13.1 71 3.0 SW 11 15 6 8 1016.6 - 0.0
02/04:30pm 18.6 17.5 13.1 70 3.1 WSW 11 15 6 8 1016.1 - 0.0
02/04:00pm 18.7 16.4 13.0 69 3.2 WSW 17 26 9 14 1015.9 - 0.0
02/03:30pm 19.4 16.6 11.4 60 4.4 W 17 20 9 11 1015.5 - 0.0
02/03:00pm 20.3 18.0 11.8 58 4.7 WNW 15 24 8 13 1015.8 1015.8 0.0
02/02:30pm 20.6 19.1 11.8 57 4.9 WNW 11 22 6 12 1015.7 - 0.0
02/02:00pm 20.1 19.2 11.2 56 4.9 N 7 11 4 6 1015.0 - 0.0
02/01:30pm 19.9 17.7 10.9 56 4.9 N 13 15 7 8 1015.1 - 0.0
02/01:00pm 20.1 18.2 11.8 59 4.6 N 13 20 7 11 1014.9 - 0.0
02/12:30pm 19.6 18.8 11.6 60 4.4 NE 7 11 4 6 1014.9 - 0.0
02/12:00pm 18.9 19.0 11.4 61 4.1 N 2 9 1 5 1015.5 1015.5 0.0
02/11:30am 18.2 17.9 11.4 64 3.7 NE 4 11 2 6 1015.8 - 0.0
02/11:00am 17.3 16.2 10.8 65 3.5 ENE 7 13 4 7 1016.4 - 0.0
02/10:30am 17.0 15.9 10.8 67 3.3 ESE 7 11 4 6 1016.7 - 0.0
02/10:00am 16.9 15.4 9.2 60 4.0 S 7 9 4 5 1017.0 - 0.0
02/09:30am 16.7 16.2 9.2 61 3.9 SSW 2 7 1 4 1017.0 - 0.0
02/09:00am 15.7 13.2 8.4 62 3.7 E 11 15 6 8 1016.2 1016.2 0.2
02/08:30am 14.8 11.8 7.5 61 3.6 NNE 13 17 7 9 1017.0 - 0.2
02/08:00am 14.7 9.8 6.9 59 3.8 E 22 30 12 16 1015.8 - 0.2
02/07:30am 13.6 9.3 7.0 64 3.2 E 19 30 10 16 1016.2 - 0.0
02/07:00am 13.3 9.4 6.9 65 3.1 ENE 17 30 9 16 1017.1 - 0.2
02/06:30am 13.3 10.0 6.6 64 3.2 ENE 13 17 7 9 1017.1 - 0.0
02/06:00am 13.3 9.6 6.4 63 3.3 ENE 15 20 8 11 1016.9 1016.9 0.2
02/05:30am 13.5 11.0 6.6 63 3.3 NE 9 13 5 7 1016.9 - 0.2
02/05:00am 13.7 10.8 6.4 61 3.5 ENE 11 17 6 9 1016.4 - 0.0
02/04:30am 14.2 10.8 6.0 58 3.9 NE 13 17 7 9 1016.7 - 0.2
02/04:00am 13.9 11.0 6.4 60 3.6 E 11 15 6 8 1016.7 - 0.0
02/03:30am 13.9 10.5 6.1 59 3.7 E 13 17 7 9 1016.2 - 0.2
02/03:00am 14.6 12.0 6.0 56 4.1 ENE 9 15 5 8 1016.9 1016.9 0.2
02/02:30am 14.2 11.7 6.5 60 3.7 E 9 11 5 6 1017.1 - 0.2
02/02:00am 14.3 11.2 5.6 56 4.1 ENE 11 17 6 9 1017.4 - 0.0
02/01:30am 14.1 10.3 5.6 56 4.0 ENE 15 19 8 10 1017.8 - 0.0
02/01:00am 14.4 10.1 5.2 54 4.3 ENE 17 20 9 11 1018.1 - 0.2
02/12:30am 14.7 10.3 4.6 50 4.7 ENE 17 24 9 13 1018.4 - 0.2
02/12:00am 14.5 10.1 4.6 51 4.6 ENE 17 24 9 13 1018.5 1018.5 0.2
 
Date/Time
WST
Temp
°C
App
Temp
°C
Dew
Point
Rel
Hum
%
Delta-T
°C
Wind Press
QNH
hPa
Press
MSL
hPa
Rain
since 9 am
mm
Dir
 
Spd
km/h
Gust
km/h
Spd
kts
Gust
kts
01/11:30pm 14.4 9.6 4.7 52 4.5 NE 19 28 10 15 1018.9 - 0.0
01/11:00pm 14.3 10.0 5.1 54 4.3 NE 17 28 9 15 1019.0 - 0.0
01/10:30pm 14.7 10.3 4.8 51 4.6 ENE 17 22 9 12 1019.5 - 0.0
01/10:00pm 14.7 11.1 5.1 52 4.5 ENE 13 22 7 12 1019.9 - 0.2
01/09:30pm 14.4 11.7 5.5 55 4.2 NE 9 13 5 7 1019.9 - 0.2
01/09:00pm 14.3 12.6 6.1 58 3.9 NE 4 9 2 5 1020.2 1020.2 0.0
01/08:30pm 13.7 11.5 6.4 61 3.5 ENE 7 13 4 7 1020.1 - 0.2
01/08:00pm 13.3 10.8 6.6 64 3.2 E 9 13 5 7 1020.3 - 0.2
01/07:30pm 14.7 11.8 6.4 57 4.0 SE 11 17 6 9 1020.4 - 0.2
01/07:00pm 14.5 11.9 7.6 63 3.4 ESE 11 15 6 8 1020.3 - 0.2
01/06:30pm 14.4 11.4 7.7 64 3.3 ESE 13 17 7 9 1020.7 - 0.0
01/06:00pm 15.4 12.6 6.8 56 4.2 E 11 17 6 9 1020.9 1020.9 0.0
01/05:30pm 16.0 13.2 6.8 54 4.5 E 11 20 6 11 1020.6 - 0.2
01/05:00pm 16.8 12.6 5.6 47 5.4 ENE 17 26 9 14 1020.3 - 0.2
01/04:30pm 17.1 12.6 6.0 48 5.4 ENE 19 37 10 20 1020.3 - 0.2
01/04:00pm 17.9 13.1 5.8 45 5.9 ENE 20 32 11 17 1019.8 - 0.2
01/03:30pm 17.7 12.7 6.3 47 5.6 ENE 22 32 12 17 1020.3 - 0.2
01/03:00pm 18.1 13.3 5.5 43 6.1 NE 20 26 11 14 1020.6 1020.6 0.0
01/02:30pm 17.9 12.3 5.2 43 6.1 ENE 24 35 13 19 1020.3 - 0.2
01/02:00pm 18.0 13.2 5.4 43 6.1 NE 20 28 11 15 1020.8 - 0.2
01/01:30pm 17.9 13.0 5.2 43 6.1 NE 20 28 11 15 1020.8 - 0.0
01/01:00pm 17.5 12.6 5.2 44 5.9 ENE 20 28 11 15 1021.4 - 0.2
01/12:30pm 16.9 10.4 4.6 44 5.8 ENE 28 33 15 18 1021.8 - 0.0
01/12:00pm 16.4 10.3 4.7 46 5.5 E 26 33 14 18 1023.0 1023.0 0.0
01/11:30am 16.6 10.5 5.0 46 5.5 ENE 26 33 14 18 1023.2 - 0.0
01/11:00am 15.6 9.7 4.1 46 5.3 ENE 24 33 13 18 1023.3 - 0.0
01/10:30am 15.1 7.8 4.3 48 5.0 ENE 32 37 17 20 1023.4 - 0.0
01/10:00am 15.4 9.7 4.9 49 4.9 NE 24 37 13 20 1023.7 - 0.0
01/09:30am 14.7 9.2 6.1 56 4.1 ENE 24 30 13 16 1023.8 - 0.0
01/09:00am 13.1 7.6 6.1 62 3.3 E 24 30 13 16 1023.8 1023.9 0.0
01/08:30am 11.7 5.3 5.4 65 2.9 E 28 37 15 20 1023.7 - 0.0
01/08:00am 10.9 4.5 5.4 69 2.5 E 28 35 15 19 1023.5 - 0.0
01/07:30am 10.2 4.2 5.3 71 2.2 ENE 26 32 14 17 1023.7 - 0.0
01/07:00am 9.4 4.2 5.4 76 1.8 ENE 22 32 12 17 1023.4 - 0.0
01/06:30am 9.0 4.2 5.4 78 1.6 ENE 20 30 11 16 1023.2 - 0.0
01/06:00am 9.2 4.6 5.4 77 1.7 ENE 19 30 10 16 1022.6 1022.6 0.0
01/05:30am 9.5 3.1 5.3 75 1.9 E 28 37 15 20 1021.9 - 0.0
01/05:00am 10.1 3.7 5.2 71 2.2 E 28 35 15 19 1021.6 - 0.0
01/04:30am 10.4 4.7 5.1 69 2.4 E 24 32 13 17 1021.8 - 0.0
01/04:00am 10.5 4.9 5.5 71 2.3 E 24 32 13 17 1021.5 - 0.0
01/03:30am 10.9 6.1 5.4 69 2.5 E 20 30 11 16 1021.7 - 0.0
01/03:00am 10.6 7.5 5.6 71 2.3 ENE 11 20 6 11 1021.7 1021.7 0.0
01/02:30am 8.6 6.4 6.0 84 1.2 NE 7 11 4 6 1021.8 - 0.0
01/02:00am 10.4 6.2 5.8 73 2.1 E 17 24 9 13 1021.9 - 0.0
01/01:30am 7.3 4.7 6.2 93 0.5 SSE 9 11 5 6 1022.0 - 0.0
01/01:00am 7.8 7.0 6.3 90 0.7 CALM 0 9 0 5 1021.9 - 0.0
01/12:30am 7.9 5.9 6.4 90 0.7 S 6 9 3 5 1021.7 - 0.0
01/12:00am 7.8 5.7 6.7 93 0.5 S 7 9 4 5 1021.8 1021.8 0.0
 
Date/Time
WST
Temp
°C
App
Temp
°C
Dew
Point
Rel
Hum
%
Delta-T
°C
Wind Press
QNH
hPa
Press
MSL
hPa
Rain
since 9 am
mm
Dir
 
Spd
km/h
Gust
km/h
Spd
kts
Gust
kts
31/11:30pm 8.1 5.9 6.1 87 0.9 SE 7 9 4 5 1022.1 - 0.0
31/11:00pm 8.4 6.9 6.7 89 0.8 SE 4 7 2 4 1022.2 - 0.0
31/10:30pm 8.9 6.8 6.5 85 1.1 ESE 7 7 4 4 1022.4 - 0.0
31/10:00pm 9.4 7.1 5.9 79 1.6 ESE 7 11 4 6 1022.5 - 0.0
31/09:30pm 10.8 8.8 7.0 77 1.8 SE 7 11 4 6 1022.5 - 0.0
31/09:00pm 12.5 9.5 6.1 65 3.0 S 11 13 6 7 1022.2 1022.2 0.0
31/08:30pm 13.1 8.5 5.4 59 3.6 S 19 22 10 12 1021.8 - 0.0
31/08:00pm 13.4 8.8 5.5 59 3.7 S 19 24 10 13 1021.3 - 0.0
31/07:30pm 13.7 9.5 5.6 58 3.8 S 17 19 9 10 1021.0 - 0.0
31/07:00pm 14.3 9.5 5.4 55 4.2 S 20 24 11 13 1020.9 - 0.0
31/06:30pm 14.9 9.9 4.8 51 4.7 SSW 20 26 11 14 1020.7 - 0.0
31/06:00pm 15.2 10.8 6.5 56 4.2 SSW 19 26 10 14 1020.3 1020.3 0.0
31/05:30pm 15.8 11.6 7.6 58 4.1 SW 19 26 10 14 1020.0 - 0.0
31/05:00pm 16.5 12.4 6.2 50 5.0 SSW 17 20 9 11 1020.0 - 0.0
31/04:30pm 16.8 12.6 5.8 48 5.3 SSW 17 20 9 11 1019.8 - 0.0
31/04:00pm 17.7 14.7 6.0 46 5.7 SW 11 17 6 9 1019.3 - 0.0

Other Formats:

Comma delimited format used in spreadsheet applications
http://www.bom.gov.au/fwo/IDW60801/IDW60801.94610.axf

JavaScript Object Notation format (JSON) in row-major order
http://www.bom.gov.au/fwo/IDW60801/IDW60801.94610.json